Terminal Aerodrome Forecast
Issued by NWS

Home | Current Version | Previous Version | Text Only | Print | Product List | Glossary On
Versions: 1 2 3 4 5 6 7 8 9 10 11 12 13 14 15 16 17 18 19
000
FTUS45 KTFX 302300
TAFLWT
TAF
KLWT 302320Z 0100/0124 31012G20KT P6SM SCT030 BKN050
      TEMPO 0100/0104 -SHRA BKN030
     FM010600 28011KT P6SM VCSH BKN040
     FM011700 29012KT P6SM SCT040 SCT090=

USA.gov is the U.S. government's official web portal to all federal, state and local government web resources and services.